createdAt,value
2022-08-10T00:02:33.063Z,101348.06
2022-08-10T00:07:45.900Z,101349.75
2022-08-10T00:13:00.680Z,101350.44
2022-08-10T00:18:34.996Z,101344.13
2022-08-10T00:23:55.297Z,101354.59
2022-08-10T00:29:09.216Z,101359.09
2022-08-10T00:39:41.729Z,101356.97
2022-08-10T00:45:01.026Z,101355.31
2022-08-10T00:50:06.903Z,101347.81
2022-08-10T00:55:15.726Z,101343.47
2022-08-10T01:00:31.284Z,101341.66
2022-08-10T01:05:52.165Z,101344.13
2022-08-10T01:12:37.110Z,101331.69
2022-08-10T01:16:55.779Z,101337.84
2022-08-10T01:22:52.858Z,101347.31
2022-08-10T01:28:06.436Z,101347.44
2022-08-10T01:33:31.727Z,101347.94
2022-08-10T01:38:54.869Z,101353.91
2022-08-10T01:44:19.883Z,101356.88
2022-08-10T01:49:35.794Z,101354.72
2022-08-10T01:54:47.373Z,101346.91
2022-08-10T02:00:03.503Z,101347.56
2022-08-10T02:05:16.216Z,101344.34
2022-08-10T02:10:24.937Z,101338.53
2022-08-10T02:16:01.406Z,101333.56
2022-08-10T02:21:17.426Z,101345.63
2022-08-10T02:26:24.669Z,101335.69
2022-08-10T02:31:42.797Z,101338.81
2022-08-10T02:37:01.174Z,101335.81
2022-08-10T02:45:01.309Z,101334.28
2022-08-10T02:47:59.419Z,101338.13
2022-08-10T02:53:55.884Z,101340.91
2022-08-10T02:58:51.821Z,101340.41
2022-08-10T03:04:08.851Z,101345.69
2022-08-10T03:09:38.181Z,101349.88
2022-08-10T03:15:04.114Z,101355.19
2022-08-10T03:20:37.184Z,101355.00
2022-08-10T03:25:53.197Z,101348.03
2022-08-10T03:31:10.738Z,101341.72
2022-08-10T03:36:43.310Z,101349.69
2022-08-10T03:41:54.318Z,101349.22
2022-08-10T03:47:15.977Z,101354.84
2022-08-10T03:52:23.210Z,101359.34
2022-08-10T03:57:49.715Z,101361.47
2022-08-10T04:02:58.721Z,101363.28
2022-08-10T04:08:05.541Z,101372.91
2022-08-10T04:13:23.527Z,101376.41
2022-08-10T04:18:39.230Z,101378.22
2022-08-10T04:23:53.080Z,101382.97
2022-08-10T04:29:01.363Z,101384.16
2022-08-10T04:34:08.777Z,101383.63
2022-08-10T04:39:36.178Z,101376.66
2022-08-10T04:44:48.970Z,101371.22
2022-08-10T04:49:57.664Z,101386.97
2022-08-10T04:55:15.471Z,101382.84
2022-08-10T05:00:23.693Z,101390.03
2022-08-10T05:05:29.923Z,101398.84
2022-08-10T05:15:58.150Z,101395.91
2022-08-10T05:21:08.382Z,101389.34
2022-08-10T05:26:14.760Z,101404.41
2022-08-10T05:31:24.253Z,101401.34
2022-08-10T05:36:29.764Z,101399.28
2022-08-10T05:41:45.391Z,101397.69
2022-08-10T05:46:56.326Z,101409.03
2022-08-10T05:52:01.656Z,101407.06
2022-08-10T05:57:23.312Z,101417.09
2022-08-10T06:02:41.907Z,101418.00
2022-08-10T06:08:01.481Z,101423.44
2022-08-10T06:13:34.830Z,101426.41
2022-08-10T06:18:59.380Z,101424.63
2022-08-10T06:24:06.060Z,101426.13
2022-08-10T06:29:15.420Z,101419.69
2022-08-10T06:34:29.891Z,101432.38
2022-08-10T06:39:47.128Z,101435.56
2022-08-10T06:45:12.870Z,101436.09
2022-08-10T06:50:58.580Z,101437.44
2022-08-10T06:56:36.636Z,101429.38
2022-08-10T07:02:01.172Z,101431.03
2022-08-10T07:07:17.759Z,101426.53
2022-08-10T07:12:26.892Z,101422.19
2022-08-10T07:17:39.245Z,101429.22
2022-08-10T07:23:56.093Z,101415.91
2022-08-10T07:28:22.624Z,101403.00
2022-08-10T07:33:48.423Z,101406.94
2022-08-10T07:39:15.539Z,101403.13
2022-08-10T07:44:43.613Z,101404.81
2022-08-10T07:50:05.078Z,101398.97
2022-08-10T07:56:02.160Z,101405.50
2022-08-10T08:01:04.587Z,101390.84
2022-08-10T08:06:23.037Z,101400.34
2022-08-10T08:11:32.843Z,101403.47
2022-08-10T08:16:51.151Z,101397.59
2022-08-10T08:24:04.651Z,101393.13
2022-08-10T08:27:57.897Z,101399.09
2022-08-10T08:33:19.935Z,101401.81
2022-08-10T08:38:49.261Z,101393.72
2022-08-10T08:44:13.124Z,101384.84
2022-08-10T08:49:41.477Z,101384.72
2022-08-10T08:55:55.143Z,101375.19
2022-08-10T09:01:18.599Z,101381.66
2022-08-10T09:06:56.905Z,101372.88
2022-08-10T09:12:19.115Z,101382.06
2022-08-10T09:17:37.049Z,101376.25
2022-08-10T09:22:50.434Z,101369.19
2022-08-10T09:28:05.945Z,101366.88
2022-08-10T09:36:24.975Z,101368.19
2022-08-10T09:38:56.498Z,101372.22
2022-08-10T09:44:14.087Z,101354.41
2022-08-10T09:49:53.935Z,101359.66
2022-08-10T09:56:19.294Z,101374.53
2022-08-10T10:01:57.953Z,101356.94
2022-08-10T10:06:56.225Z,101354.63
2022-08-10T10:12:17.112Z,101357.97
2022-08-10T10:17:43.310Z,101340.78
2022-08-10T10:23:14.995Z,101342.09
2022-08-10T10:29:11.513Z,101341.00
2022-08-10T10:34:13.286Z,101326.44
2022-08-10T10:39:45.720Z,101314.84
2022-08-10T10:44:55.758Z,101316.69
2022-08-10T10:50:11.508Z,101293.97
2022-08-10T10:55:32.522Z,101292.72
2022-08-10T11:00:47.857Z,101298.41
2022-08-10T11:06:17.949Z,101284.69
2022-08-10T11:12:01.434Z,101281.16
2022-08-10T11:17:26.373Z,101287.25
2022-08-10T11:22:43.014Z,101280.00
2022-08-10T11:28:00.169Z,101273.53
2022-08-10T11:33:30.830Z,101287.34
2022-08-10T11:39:13.916Z,101276.97
2022-08-10T11:44:35.981Z,101278.56
2022-08-10T11:49:49.201Z,101282.69
2022-08-10T11:54:57.377Z,101277.06
2022-08-10T12:00:15.463Z,101272.69
2022-08-10T12:05:52.679Z,101269.34
2022-08-10T12:11:02.757Z,101271.28
2022-08-10T12:16:25.712Z,101263.59
2022-08-10T12:21:46.762Z,101259.69
2022-08-10T12:27:02.053Z,101255.41
2022-08-10T12:32:18.288Z,101250.47
2022-08-10T12:44:06.892Z,101233.66
2022-08-10T12:49:05.015Z,101229.69
2022-08-10T12:54:31.899Z,101232.22
2022-08-10T12:59:43.121Z,101227.13
2022-08-10T13:05:02.742Z,101215.50
2022-08-10T13:10:14.037Z,101209.72
2022-08-10T13:15:48.590Z,101206.69
2022-08-10T13:21:02.282Z,101198.44
2022-08-10T13:26:10.246Z,101197.63
2022-08-10T13:32:10.092Z,101193.16
2022-08-10T13:37:06.122Z,101192.00
2022-08-10T13:42:31.949Z,101179.66
2022-08-10T13:47:48.119Z,101178.81
2022-08-10T13:53:14.852Z,101171.50
2022-08-10T13:58:44.583Z,101158.78
2022-08-10T14:04:01.390Z,101156.25
2022-08-10T14:09:22.252Z,101157.81
2022-08-10T14:14:44.176Z,101161.91
2022-08-10T14:20:21.865Z,101148.44
2022-08-10T14:25:46.316Z,101139.91
2022-08-10T14:42:32.219Z,101131.16
2022-08-10T14:47:52.990Z,101131.09
2022-08-10T14:53:27.262Z,101127.84
2022-08-10T14:58:59.136Z,101124.94
2022-08-10T15:04:37.477Z,101108.59
2022-08-10T15:10:00.920Z,101116.63
2022-08-10T15:21:00.610Z,101124.31
2022-08-10T15:26:25.615Z,101103.03
2022-08-10T15:31:56.728Z,101107.13
2022-08-10T15:37:40.179Z,101091.22
2022-08-10T15:42:49.212Z,101090.38
2022-08-10T15:48:25.074Z,101097.28
2022-08-10T15:53:49.113Z,101094.91
2022-08-10T15:59:08.209Z,101096.16
2022-08-10T16:04:31.843Z,101091.56
2022-08-10T16:10:23.040Z,101083.16
2022-08-10T16:15:22.072Z,101080.75
2022-08-10T16:20:47.925Z,101080.50
2022-08-10T16:26:25.109Z,101075.88
2022-08-10T16:31:55.096Z,101071.75
2022-08-10T16:37:12.222Z,101072.66
2022-08-10T16:42:22.566Z,101068.78
2022-08-10T16:47:31.148Z,101060.63
2022-08-10T16:52:42.216Z,101060.88
2022-08-10T16:57:53.805Z,101058.97
2022-08-10T17:04:04.565Z,101053.66
2022-08-10T17:08:53.708Z,101059.03
2022-08-10T17:14:16.079Z,101053.25
2022-08-10T17:19:39.146Z,101055.09
2022-08-10T17:24:54.201Z,101036.72
2022-08-10T17:30:15.825Z,101046.88
2022-08-10T17:35:39.880Z,101050.81
2022-08-10T17:40:54.536Z,101049.56
2022-08-10T17:46:14.054Z,101049.38
2022-08-10T17:51:30.804Z,101040.91
2022-08-10T17:56:44.412Z,101047.84
2022-08-10T18:02:01.870Z,101048.09
2022-08-10T18:07:15.189Z,101049.81
2022-08-10T18:12:38.096Z,101052.56
2022-08-10T18:17:49.133Z,101051.19
2022-08-10T18:23:06.915Z,101054.13
2022-08-10T18:28:19.998Z,101054.34
2022-08-10T18:33:31.187Z,101071.13
2022-08-10T18:38:50.649Z,101065.44
2022-08-10T18:44:12.302Z,101071.88
2022-08-10T18:49:23.801Z,101066.97
2022-08-10T18:54:45.468Z,101071.72
2022-08-10T19:00:33.496Z,101077.53
2022-08-10T19:06:16.804Z,101084.97
2022-08-10T19:11:32.790Z,101081.72
2022-08-10T19:16:49.102Z,101086.41
2022-08-10T19:22:07.815Z,101091.75
2022-08-10T19:27:16.765Z,101089.28
2022-08-10T19:32:34.715Z,101088.22
2022-08-10T19:38:01.078Z,101079.97
2022-08-10T19:43:59.295Z,101084.41
2022-08-10T19:49:02.314Z,101082.09
2022-08-10T19:54:18.761Z,101087.22
2022-08-10T20:00:17.047Z,101089.84
2022-08-10T20:05:06.508Z,101080.34
2022-08-10T20:10:21.930Z,101082.34
2022-08-10T20:15:42.130Z,101076.50
2022-08-10T20:20:51.912Z,101084.25
2022-08-10T20:26:04.714Z,101081.13
2022-08-10T20:31:17.150Z,101085.34
2022-08-10T20:36:30.628Z,101087.75
2022-08-10T20:41:50.501Z,101088.72
2022-08-10T20:47:01.257Z,101089.84
2022-08-10T20:52:13.088Z,101079.47
2022-08-10T20:58:01.556Z,101075.72
2022-08-10T21:03:34.775Z,101080.75
2022-08-10T21:09:02.100Z,101082.09
2022-08-10T21:14:38.475Z,101087.38
2022-08-10T21:20:12.548Z,101081.97
2022-08-10T21:30:57.248Z,101091.22
2022-08-10T21:36:23.338Z,101088.31
2022-08-10T21:42:04.729Z,101081.22
2022-08-10T21:48:06.561Z,101087.31
2022-08-10T21:53:44.493Z,101083.53
2022-08-10T21:59:25.702Z,101083.47
2022-08-10T22:04:50.803Z,101090.00
2022-08-10T22:10:19.948Z,101080.25
2022-08-10T22:16:05.468Z,101074.66
2022-08-10T22:21:45.760Z,101079.53
2022-08-10T22:27:46.502Z,101076.59
2022-08-10T22:33:15.693Z,101074.69
2022-08-10T22:38:57.216Z,101087.56
2022-08-10T22:44:30.060Z,101076.78
2022-08-10T22:49:39.156Z,101068.53
2022-08-10T22:55:09.214Z,101073.41
2022-08-10T23:00:31.422Z,101067.63
2022-08-10T23:05:44.232Z,101067.94
2022-08-10T23:11:11.014Z,101068.69
2022-08-10T23:16:42.342Z,101071.09
2022-08-10T23:22:04.184Z,101065.28
2022-08-10T23:27:38.502Z,101073.38
2022-08-10T23:32:49.619Z,101059.59
2022-08-10T23:38:00.503Z,101055.16
2022-08-10T23:43:08.277Z,101055.06
2022-08-10T23:48:26.179Z,101050.09
2022-08-10T23:53:40.117Z,101049.16
2022-08-10T23:58:52.137Z,101061.53
